sensor_id;sensor_type;location;lat;lon;timestamp;temperature;humidity
69731;SHT31;56996;48.138;11.538;2023-05-07T00:01:20;15.64;68.20
69731;SHT31;56996;48.138;11.538;2023-05-07T00:03:47;15.62;68.30
69731;SHT31;56996;48.138;11.538;2023-05-07T00:06:14;15.60;68.35
69731;SHT31;56996;48.138;11.538;2023-05-07T00:08:41;15.59;68.28
69731;SHT31;56996;48.138;11.538;2023-05-07T00:11:07;15.56;68.55
69731;SHT31;56996;48.138;11.538;2023-05-07T00:13:34;15.49;68.37
69731;SHT31;56996;48.138;11.538;2023-05-07T00:16:02;15.46;68.29
69731;SHT31;56996;48.138;11.538;2023-05-07T00:18:29;15.48;68.25
69731;SHT31;56996;48.138;11.538;2023-05-07T00:20:56;15.49;68.17
69731;SHT31;56996;48.138;11.538;2023-05-07T00:23:23;15.52;68.42
69731;SHT31;56996;48.138;11.538;2023-05-07T00:25:49;15.52;68.52
69731;SHT31;56996;48.138;11.538;2023-05-07T00:28:16;15.53;68.58
69731;SHT31;56996;48.138;11.538;2023-05-07T00:30:43;15.52;68.72
69731;SHT31;56996;48.138;11.538;2023-05-07T00:33:09;15.51;68.79
69731;SHT31;56996;48.138;11.538;2023-05-07T00:35:36;15.48;68.82
69731;SHT31;56996;48.138;11.538;2023-05-07T00:38:03;15.46;68.92
69731;SHT31;56996;48.138;11.538;2023-05-07T00:40:30;15.42;68.87
69731;SHT31;56996;48.138;11.538;2023-05-07T00:42:56;15.38;68.90
69731;SHT31;56996;48.138;11.538;2023-05-07T00:45:27;15.36;69.16
69731;SHT31;56996;48.138;11.538;2023-05-07T00:47:55;15.37;69.18
69731;SHT31;56996;48.138;11.538;2023-05-07T00:50:25;15.37;69.26
69731;SHT31;56996;48.138;11.538;2023-05-07T00:52:53;15.38;69.39
69731;SHT31;56996;48.138;11.538;2023-05-07T00:55:21;15.36;69.46
69731;SHT31;56996;48.138;11.538;2023-05-07T00:57:50;15.33;69.58
69731;SHT31;56996;48.138;11.538;2023-05-07T01:00:17;15.33;69.56
69731;SHT31;56996;48.138;11.538;2023-05-07T01:02:45;15.31;69.41
69731;SHT31;56996;48.138;11.538;2023-05-07T01:05:14;15.31;69.40
69731;SHT31;56996;48.138;11.538;2023-05-07T01:07:45;15.32;69.66
69731;SHT31;56996;48.138;11.538;2023-05-07T01:10:12;15.32;69.70
69731;SHT31;56996;48.138;11.538;2023-05-07T01:12:40;15.32;69.85
69731;SHT31;56996;48.138;11.538;2023-05-07T01:15:10;15.33;69.90
69731;SHT31;56996;48.138;11.538;2023-05-07T01:17:37;15.31;69.96
69731;SHT31;56996;48.138;11.538;2023-05-07T01:20:11;15.31;70.07
69731;SHT31;56996;48.138;11.538;2023-05-07T01:22:39;15.30;70.18
69731;SHT31;56996;48.138;11.538;2023-05-07T01:25:07;15.27;70.21
69731;SHT31;56996;48.138;11.538;2023-05-07T01:27:36;15.27;70.26
69731;SHT31;56996;48.138;11.538;2023-05-07T01:30:04;15.26;70.26
69731;SHT31;56996;48.138;11.538;2023-05-07T01:32:40;15.25;70.29
69731;SHT31;56996;48.138;11.538;2023-05-07T01:35:11;15.21;70.50
69731;SHT31;56996;48.138;11.538;2023-05-07T01:37:41;15.12;70.69
69731;SHT31;56996;48.138;11.538;2023-05-07T01:40:08;15.10;70.69
69731;SHT31;56996;48.138;11.538;2023-05-07T01:42:36;15.11;70.70
69731;SHT31;56996;48.138;11.538;2023-05-07T01:45:03;15.11;70.70
69731;SHT31;56996;48.138;11.538;2023-05-07T01:47:30;15.12;70.70
69731;SHT31;56996;48.138;11.538;2023-05-07T01:49:58;15.11;70.72
69731;SHT31;56996;48.138;11.538;2023-05-07T01:52:25;15.09;70.82
69731;SHT31;56996;48.138;11.538;2023-05-07T01:54:53;15.08;70.85
69731;SHT31;56996;48.138;11.538;2023-05-07T01:57:20;15.07;70.90
69731;SHT31;56996;48.138;11.538;2023-05-07T01:59:49;15.05;70.97
69731;SHT31;56996;48.138;11.538;2023-05-07T02:02:17;15.04;71.02
69731;SHT31;56996;48.138;11.538;2023-05-07T02:04:44;15.00;71.11
69731;SHT31;56996;48.138;11.538;2023-05-07T02:07:12;14.96;71.22
69731;SHT31;56996;48.138;11.538;2023-05-07T02:09:38;14.93;71.38
69731;SHT31;56996;48.138;11.538;2023-05-07T02:12:05;14.91;71.46
69731;SHT31;56996;48.138;11.538;2023-05-07T02:14:31;14.88;71.51
69731;SHT31;56996;48.138;11.538;2023-05-07T02:16:58;14.85;71.55
69731;SHT31;56996;48.138;11.538;2023-05-07T02:19:25;14.81;71.64
69731;SHT31;56996;48.138;11.538;2023-05-07T02:21:51;14.77;71.66
69731;SHT31;56996;48.138;11.538;2023-05-07T02:24:19;14.75;71.76
69731;SHT31;56996;48.138;11.538;2023-05-07T02:26:45;14.71;71.84
69731;SHT31;56996;48.138;11.538;2023-05-07T02:29:12;14.68;71.87
69731;SHT31;56996;48.138;11.538;2023-05-07T02:31:39;14.67;71.89
69731;SHT31;56996;48.138;11.538;2023-05-07T02:34:06;14.65;71.92
69731;SHT31;56996;48.138;11.538;2023-05-07T02:36:32;14.61;72.02
69731;SHT31;56996;48.138;11.538;2023-05-07T02:39:03;14.58;72.08
69731;SHT31;56996;48.138;11.538;2023-05-07T02:41:30;14.54;72.15
69731;SHT31;56996;48.138;11.538;2023-05-07T02:43:56;14.50;72.25
69731;SHT31;56996;48.138;11.538;2023-05-07T02:46:23;14.48;72.27
69731;SHT31;56996;48.138;11.538;2023-05-07T02:48:56;14.44;72.26
69731;SHT31;56996;48.138;11.538;2023-05-07T02:51:23;14.39;72.33
69731;SHT31;56996;48.138;11.538;2023-05-07T02:53:56;14.35;72.40
69731;SHT31;56996;48.138;11.538;2023-05-07T02:56:23;14.35;72.45
69731;SHT31;56996;48.138;11.538;2023-05-07T02:58:51;14.32;72.38
69731;SHT31;56996;48.138;11.538;2023-05-07T03:01:19;14.29;72.45
69731;SHT31;56996;48.138;11.538;2023-05-07T03:04:06;14.24;72.48
69731;SHT31;56996;48.138;11.538;2023-05-07T03:06:33;14.23;72.50
69731;SHT31;56996;48.138;11.538;2023-05-07T03:09:00;14.19;72.58
69731;SHT31;56996;48.138;11.538;2023-05-07T03:11:26;14.17;72.60
69731;SHT31;56996;48.138;11.538;2023-05-07T03:13:53;14.15;72.67
69731;SHT31;56996;48.138;11.538;2023-05-07T03:16:20;14.13;72.69
69731;SHT31;56996;48.138;11.538;2023-05-07T03:18:47;14.12;72.78
69731;SHT31;56996;48.138;11.538;2023-05-07T03:21:14;14.10;72.77
69731;SHT31;56996;48.138;11.538;2023-05-07T03:23:41;14.08;72.80
69731;SHT31;56996;48.138;11.538;2023-05-07T03:26:07;14.07;72.85
69731;SHT31;56996;48.138;11.538;2023-05-07T03:28:34;14.03;72.93
69731;SHT31;56996;48.138;11.538;2023-05-07T03:31:02;13.98;73.18
69731;SHT31;56996;48.138;11.538;2023-05-07T03:33:32;13.85;73.66
69731;SHT31;56996;48.138;11.538;2023-05-07T03:36:01;13.78;73.65
69731;SHT31;56996;48.138;11.538;2023-05-07T03:38:28;13.80;73.63
69731;SHT31;56996;48.138;11.538;2023-05-07T03:40:54;13.82;73.59
69731;SHT31;56996;48.138;11.538;2023-05-07T03:43:21;13.83;73.59
69731;SHT31;56996;48.138;11.538;2023-05-07T03:45:51;13.85;73.55
69731;SHT31;56996;48.138;11.538;2023-05-07T03:48:21;13.85;73.60
69731;SHT31;56996;48.138;11.538;2023-05-07T03:50:48;13.87;73.66
69731;SHT31;56996;48.138;11.538;2023-05-07T03:53:15;13.87;73.70
69731;SHT31;56996;48.138;11.538;2023-05-07T03:55:42;13.88;73.72
69731;SHT31;56996;48.138;11.538;2023-05-07T03:58:08;13.86;73.78
69731;SHT31;56996;48.138;11.538;2023-05-07T04:00:36;13.87;73.78
69731;SHT31;56996;48.138;11.538;2023-05-07T04:03:11;13.88;73.80
69731;SHT31;56996;48.138;11.538;2023-05-07T04:05:38;13.88;73.80
69731;SHT31;56996;48.138;11.538;2023-05-07T04:08:04;13.86;73.75
69731;SHT31;56996;48.138;11.538;2023-05-07T04:10:36;13.84;73.76
69731;SHT31;56996;48.138;11.538;2023-05-07T04:13:07;13.83;73.79
69731;SHT31;56996;48.138;11.538;2023-05-07T04:15:34;13.83;73.78
69731;SHT31;56996;48.138;11.538;2023-05-07T04:18:03;13.82;73.79
69731;SHT31;56996;48.138;11.538;2023-05-07T04:23:08;13.83;73.71
69731;SHT31;56996;48.138;11.538;2023-05-07T04:25:35;13.84;73.63
69731;SHT31;56996;48.138;11.538;2023-05-07T04:28:08;13.83;73.52
69731;SHT31;56996;48.138;11.538;2023-05-07T04:30:35;13.82;73.51
69731;SHT31;56996;48.138;11.538;2023-05-07T04:33:03;13.84;73.56
69731;SHT31;56996;48.138;11.538;2023-05-07T04:35:30;13.87;73.51
69731;SHT31;56996;48.138;11.538;2023-05-07T04:37:57;13.90;73.50
69731;SHT31;56996;48.138;11.538;2023-05-07T04:40:24;13.94;73.50
69731;SHT31;56996;48.138;11.538;2023-05-07T04:42:51;13.99;73.40
69731;SHT31;56996;48.138;11.538;2023-05-07T04:45:20;14.04;73.32
69731;SHT31;56996;48.138;11.538;2023-05-07T04:47:47;14.11;73.21
69731;SHT31;56996;48.138;11.538;2023-05-07T04:50:14;14.19;73.03
69731;SHT31;56996;48.138;11.538;2023-05-07T04:52:41;14.26;72.88
69731;SHT31;56996;48.138;11.538;2023-05-07T04:55:07;14.34;72.77
69731;SHT31;56996;48.138;11.538;2023-05-07T04:57:37;14.41;72.69
69731;SHT31;56996;48.138;11.538;2023-05-07T05:00:06;14.47;72.58
69731;SHT31;56996;48.138;11.538;2023-05-07T05:02:40;14.54;72.44
69731;SHT31;56996;48.138;11.538;2023-05-07T05:05:08;14.60;72.30
69731;SHT31;56996;48.138;11.538;2023-05-07T05:07:34;14.66;72.12
69731;SHT31;56996;48.138;11.538;2023-05-07T05:10:02;14.68;72.04
69731;SHT31;56996;48.138;11.538;2023-05-07T05:12:32;14.70;72.00
69731;SHT31;56996;48.138;11.538;2023-05-07T05:14:58;14.73;71.98
69731;SHT31;56996;48.138;11.538;2023-05-07T05:17:25;14.75;71.96
69731;SHT31;56996;48.138;11.538;2023-05-07T05:19:52;14.80;71.85
69731;SHT31;56996;48.138;11.538;2023-05-07T05:22:19;14.86;71.74
69731;SHT31;56996;48.138;11.538;2023-05-07T05:24:47;14.91;71.65
69731;SHT31;56996;48.138;11.538;2023-05-07T05:27:14;14.96;71.44
69731;SHT31;56996;48.138;11.538;2023-05-07T05:29:41;15.02;71.29
69731;SHT31;56996;48.138;11.538;2023-05-07T05:32:08;15.07;71.13
69731;SHT31;56996;48.138;11.538;2023-05-07T05:34:34;15.13;71.00
69731;SHT31;56996;48.138;11.538;2023-05-07T05:37:02;15.16;70.94
69731;SHT31;56996;48.138;11.538;2023-05-07T05:39:28;15.16;70.84
69731;SHT31;56996;48.138;11.538;2023-05-07T05:41:55;15.21;70.74
69731;SHT31;56996;48.138;11.538;2023-05-07T05:44:22;15.28;70.55
69731;SHT31;56996;48.138;11.538;2023-05-07T05:46:49;15.36;70.39
69731;SHT31;56996;48.138;11.538;2023-05-07T05:49:17;15.40;70.28
69731;SHT31;56996;48.138;11.538;2023-05-07T05:51:44;15.40;70.20
69731;SHT31;56996;48.138;11.538;2023-05-07T05:54:11;15.52;69.93
69731;SHT31;56996;48.138;11.538;2023-05-07T05:56:38;16.06;69.21
69731;SHT31;56996;48.138;11.538;2023-05-07T05:59:06;17.76;66.29
69731;SHT31;56996;48.138;11.538;2023-05-07T06:01:33;19.87;61.91
69731;SHT31;56996;48.138;11.538;2023-05-07T06:04:01;21.59;58.26
69731;SHT31;56996;48.138;11.538;2023-05-07T06:06:28;23.13;55.09
69731;SHT31;56996;48.138;11.538;2023-05-07T06:08:55;24.52;52.17
69731;SHT31;56996;48.138;11.538;2023-05-07T06:11:24;25.66;49.87
69731;SHT31;56996;48.138;11.538;2023-05-07T06:13:52;26.10;46.04
69731;SHT31;56996;48.138;11.538;2023-05-07T06:16:18;26.35;47.51
69731;SHT31;56996;48.138;11.538;2023-05-07T06:18:45;27.45;45.64
69731;SHT31;56996;48.138;11.538;2023-05-07T06:21:13;28.54;43.85
69731;SHT31;56996;48.138;11.538;2023-05-07T06:23:41;29.53;41.96
69731;SHT31;56996;48.138;11.538;2023-05-07T06:26:07;30.42;40.46
69731;SHT31;56996;48.138;11.538;2023-05-07T06:28:38;31.18;38.84
69731;SHT31;56996;48.138;11.538;2023-05-07T06:31:17;31.66;37.62
69731;SHT31;56996;48.138;11.538;2023-05-07T06:33:53;32.29;36.98
69731;SHT31;56996;48.138;11.538;2023-05-07T06:36:22;32.88;35.40
69731;SHT31;56996;48.138;11.538;2023-05-07T06:38:48;32.41;33.12
69731;SHT31;56996;48.138;11.538;2023-05-07T06:41:15;31.36;34.86
69731;SHT31;56996;48.138;11.538;2023-05-07T06:43:42;31.68;35.17
69731;SHT31;56996;48.138;11.538;2023-05-07T06:46:24;32.67;33.21
69731;SHT31;56996;48.138;11.538;2023-05-07T06:48:51;33.06;32.93
69731;SHT31;56996;48.138;11.538;2023-05-07T06:51:19;33.59;32.39
69731;SHT31;56996;48.138;11.538;2023-05-07T06:53:45;34.11;31.66
69731;SHT31;56996;48.138;11.538;2023-05-07T06:56:12;34.42;31.23
69731;SHT31;56996;48.138;11.538;2023-05-07T06:58:39;34.85;30.66
69731;SHT31;56996;48.138;11.538;2023-05-07T07:01:06;35.08;30.22
69731;SHT31;56996;48.138;11.538;2023-05-07T07:03:33;35.17;29.81
69731;SHT31;56996;48.138;11.538;2023-05-07T07:06:02;35.24;29.48
69731;SHT31;56996;48.138;11.538;2023-05-07T07:08:29;34.57;29.43
69731;SHT31;56996;48.138;11.538;2023-05-07T07:10:56;34.54;29.69
69731;SHT31;56996;48.138;11.538;2023-05-07T07:13:24;34.92;29.29
69731;SHT31;56996;48.138;11.538;2023-05-07T07:15:51;34.49;28.95
69731;SHT31;56996;48.138;11.538;2023-05-07T07:18:19;33.39;30.06
69731;SHT31;56996;48.138;11.538;2023-05-07T07:20:47;32.54;30.82
69731;SHT31;56996;48.138;11.538;2023-05-07T07:23:14;31.68;31.57
69731;SHT31;56996;48.138;11.538;2023-05-07T07:25:40;30.90;32.52
69731;SHT31;56996;48.138;11.538;2023-05-07T07:28:07;29.99;33.21
69731;SHT31;56996;48.138;11.538;2023-05-07T07:30:35;29.01;33.80
69731;SHT31;56996;48.138;11.538;2023-05-07T07:33:02;28.02;34.81
69731;SHT31;56996;48.138;11.538;2023-05-07T07:35:32;27.18;35.79
69731;SHT31;56996;48.138;11.538;2023-05-07T07:37:59;26.62;36.70
69731;SHT31;56996;48.138;11.538;2023-05-07T07:40:26;26.26;37.39
69731;SHT31;56996;48.138;11.538;2023-05-07T07:42:53;25.99;37.98
69731;SHT31;56996;48.138;11.538;2023-05-07T07:45:21;25.61;38.11
69731;SHT31;56996;48.138;11.538;2023-05-07T07:47:48;25.72;38.44
69731;SHT31;56996;48.138;11.538;2023-05-07T07:50:15;26.71;37.38
69731;SHT31;56996;48.138;11.538;2023-05-07T07:53:01;28.06;35.94
69731;SHT31;56996;48.138;11.538;2023-05-07T07:55:28;29.12;34.77
69731;SHT31;56996;48.138;11.538;2023-05-07T07:57:55;29.77;33.71
69731;SHT31;56996;48.138;11.538;2023-05-07T08:00:21;30.58;32.88
69731;SHT31;56996;48.138;11.538;2023-05-07T08:02:49;31.11;32.33
69731;SHT31;56996;48.138;11.538;2023-05-07T08:05:20;31.26;32.16
69731;SHT31;56996;48.138;11.538;2023-05-07T08:07:47;32.12;31.58
69731;SHT31;56996;48.138;11.538;2023-05-07T08:10:19;32.87;31.03
69731;SHT31;56996;48.138;11.538;2023-05-07T08:12:52;33.49;30.35
69731;SHT31;56996;48.138;11.538;2023-05-07T08:15:19;33.73;29.82
69731;SHT31;56996;48.138;11.538;2023-05-07T08:17:48;34.03;29.32
69731;SHT31;56996;48.138;11.538;2023-05-07T08:20:15;34.38;28.90
69731;SHT31;56996;48.138;11.538;2023-05-07T08:22:42;34.88;28.41
69731;SHT31;56996;48.138;11.538;2023-05-07T08:25:09;35.47;27.85
69731;SHT31;56996;48.138;11.538;2023-05-07T08:27:36;36.01;27.54
69731;SHT31;56996;48.138;11.538;2023-05-07T08:30:04;36.42;26.99
69731;SHT31;56996;48.138;11.538;2023-05-07T08:32:31;36.73;26.25
69731;SHT31;56996;48.138;11.538;2023-05-07T08:34:58;36.59;25.79
69731;SHT31;56996;48.138;11.538;2023-05-07T08:37:24;36.09;26.17
69731;SHT31;56996;48.138;11.538;2023-05-07T08:39:52;36.33;26.11
69731;SHT31;56996;48.138;11.538;2023-05-07T08:42:20;36.65;25.66
69731;SHT31;56996;48.138;11.538;2023-05-07T08:44:51;36.75;25.39
69731;SHT31;56996;48.138;11.538;2023-05-07T08:47:22;36.26;24.82
69731;SHT31;56996;48.138;11.538;2023-05-07T08:49:57;35.35;24.73
69731;SHT31;56996;48.138;11.538;2023-05-07T08:52:24;35.15;26.01
69731;SHT31;56996;48.138;11.538;2023-05-07T08:54:52;35.46;25.60
69731;SHT31;56996;48.138;11.538;2023-05-07T08:57:20;36.07;25.25
69731;SHT31;56996;48.138;11.538;2023-05-07T08:59:48;36.63;25.18
69731;SHT31;56996;48.138;11.538;2023-05-07T09:02:15;36.92;24.77
69731;SHT31;56996;48.138;11.538;2023-05-07T09:04:43;37.00;24.84
69731;SHT31;56996;48.138;11.538;2023-05-07T09:07:09;37.12;24.72
69731;SHT31;56996;48.138;11.538;2023-05-07T09:09:39;36.96;23.81
69731;SHT31;56996;48.138;11.538;2023-05-07T09:12:06;36.29;24.61
69731;SHT31;56996;48.138;11.538;2023-05-07T09:14:33;35.77;24.57
69731;SHT31;56996;48.138;11.538;2023-05-07T09:17:00;35.57;24.60
69731;SHT31;56996;48.138;11.538;2023-05-07T09:19:27;35.10;25.07
69731;SHT31;56996;48.138;11.538;2023-05-07T09:21:58;34.97;25.03
69731;SHT31;56996;48.138;11.538;2023-05-07T09:24:29;35.32;24.82
69731;SHT31;56996;48.138;11.538;2023-05-07T09:27:01;35.74;25.07
69731;SHT31;56996;48.138;11.538;2023-05-07T09:29:29;36.03;24.71
69731;SHT31;56996;48.138;11.538;2023-05-07T09:32:03;36.36;24.19
69731;SHT31;56996;48.138;11.538;2023-05-07T09:34:32;36.58;23.95
69731;SHT31;56996;48.138;11.538;2023-05-07T09:37:04;36.47;24.30
69731;SHT31;56996;48.138;11.538;2023-05-07T09:39:42;36.04;24.32
69731;SHT31;56996;48.138;11.538;2023-05-07T09:42:15;35.63;24.26
69731;SHT31;56996;48.138;11.538;2023-05-07T09:44:43;34.85;25.27
69731;SHT31;56996;48.138;11.538;2023-05-07T09:47:18;34.00;25.93
69731;SHT31;56996;48.138;11.538;2023-05-07T09:49:47;32.98;27.42
69731;SHT31;56996;48.138;11.538;2023-05-07T09:52:17;32.65;26.99
69731;SHT31;56996;48.138;11.538;2023-05-07T09:54:47;32.57;26.44
69731;SHT31;56996;48.138;11.538;2023-05-07T09:57:18;32.62;26.24
69731;SHT31;56996;48.138;11.538;2023-05-07T09:59:49;32.57;26.89
69731;SHT31;56996;48.138;11.538;2023-05-07T10:02:18;32.10;27.84
69731;SHT31;56996;48.138;11.538;2023-05-07T10:04:49;31.51;28.53
69731;SHT31;56996;48.138;11.538;2023-05-07T10:07:20;30.92;29.08
69731;SHT31;56996;48.138;11.538;2023-05-07T10:09:49;30.70;29.43
69731;SHT31;56996;48.138;11.538;2023-05-07T10:12:23;30.59;29.64
69731;SHT31;56996;48.138;11.538;2023-05-07T10:14:50;29.87;30.05
69731;SHT31;56996;48.138;11.538;2023-05-07T10:17:20;29.13;30.51
69731;SHT31;56996;48.138;11.538;2023-05-07T10:19:47;28.91;31.04
69731;SHT31;56996;48.138;11.538;2023-05-07T10:22:14;28.57;32.07
69731;SHT31;56996;48.138;11.538;2023-05-07T10:24:43;28.26;31.78
69731;SHT31;56996;48.138;11.538;2023-05-07T10:27:14;28.18;31.74
69731;SHT31;56996;48.138;11.538;2023-05-07T10:29:47;28.24;31.89
69731;SHT31;56996;48.138;11.538;2023-05-07T10:32:40;28.29;31.86
69731;SHT31;56996;48.138;11.538;2023-05-07T10:35:26;27.99;32.16
69731;SHT31;56996;48.138;11.538;2023-05-07T10:38:00;27.56;32.68
69731;SHT31;56996;48.138;11.538;2023-05-07T10:40:28;27.32;32.97
69731;SHT31;56996;48.138;11.538;2023-05-07T10:42:58;27.31;32.97
69731;SHT31;56996;48.138;11.538;2023-05-07T10:45:30;27.46;32.59
69731;SHT31;56996;48.138;11.538;2023-05-07T10:48:09;27.51;32.39
69731;SHT31;56996;48.138;11.538;2023-05-07T10:50:48;27.64;32.76
69731;SHT31;56996;48.138;11.538;2023-05-07T10:58:51;28.01;32.56
69731;SHT31;56996;48.138;11.538;2023-05-07T11:04:29;27.56;32.88
69731;SHT31;56996;48.138;11.538;2023-05-07T11:07:29;27.34;33.58
69731;SHT31;56996;48.138;11.538;2023-05-07T11:10:06;27.07;34.23
69731;SHT31;56996;48.138;11.538;2023-05-07T11:13:00;27.07;34.14
69731;SHT31;56996;48.138;11.538;2023-05-07T11:15:36;26.93;34.78
69731;SHT31;56996;48.138;11.538;2023-05-07T11:18:12;26.91;34.95
69731;SHT31;56996;48.138;11.538;2023-05-07T11:20:47;27.02;34.85
69731;SHT31;56996;48.138;11.538;2023-05-07T11:26:16;26.98;34.90
69731;SHT31;56996;48.138;11.538;2023-05-07T11:28:43;26.96;34.47
69731;SHT31;56996;48.138;11.538;2023-05-07T11:31:10;26.93;34.09
69731;SHT31;56996;48.138;11.538;2023-05-07T11:33:38;26.86;34.48
69731;SHT31;56996;48.138;11.538;2023-05-07T11:36:07;26.73;34.97
69731;SHT31;56996;48.138;11.538;2023-05-07T11:38:40;26.57;35.71
69731;SHT31;56996;48.138;11.538;2023-05-07T11:41:07;26.59;35.60
69731;SHT31;56996;48.138;11.538;2023-05-07T11:43:34;26.60;35.38
69731;SHT31;56996;48.138;11.538;2023-05-07T11:46:07;26.57;35.68
69731;SHT31;56996;48.138;11.538;2023-05-07T11:48:36;26.46;35.51
69731;SHT31;56996;48.138;11.538;2023-05-07T11:51:04;26.30;35.73
69731;SHT31;56996;48.138;11.538;2023-05-07T11:53:36;26.20;35.79
69731;SHT31;56996;48.138;11.538;2023-05-07T11:56:14;26.08;35.86
69731;SHT31;56996;48.138;11.538;2023-05-07T11:58:45;26.05;35.75
69731;SHT31;56996;48.138;11.538;2023-05-07T12:01:14;26.06;35.97
69731;SHT31;56996;48.138;11.538;2023-05-07T12:03:43;26.00;35.85
69731;SHT31;56996;48.138;11.538;2023-05-07T12:06:13;26.06;35.39
69731;SHT31;56996;48.138;11.538;2023-05-07T12:08:42;26.10;35.41
69731;SHT31;56996;48.138;11.538;2023-05-07T12:11:15;26.20;36.10
69731;SHT31;56996;48.138;11.538;2023-05-07T12:13:48;26.17;36.17
69731;SHT31;56996;48.138;11.538;2023-05-07T12:16:15;26.23;35.85
69731;SHT31;56996;48.138;11.538;2023-05-07T12:18:42;26.25;35.18
69731;SHT31;56996;48.138;11.538;2023-05-07T12:21:10;26.22;34.93
69731;SHT31;56996;48.138;11.538;2023-05-07T12:23:37;26.20;34.74
69731;SHT31;56996;48.138;11.538;2023-05-07T12:26:04;26.18;35.00
69731;SHT31;56996;48.138;11.538;2023-05-07T12:28:37;26.14;35.73
69731;SHT31;56996;48.138;11.538;2023-05-07T12:31:05;26.03;35.67
69731;SHT31;56996;48.138;11.538;2023-05-07T12:33:33;25.86;35.71
69731;SHT31;56996;48.138;11.538;2023-05-07T12:36:05;25.80;35.39
69731;SHT31;56996;48.138;11.538;2023-05-07T12:38:37;25.88;34.95
69731;SHT31;56996;48.138;11.538;2023-05-07T12:41:05;25.88;35.10
69731;SHT31;56996;48.138;11.538;2023-05-07T12:43:33;25.83;35.39
69731;SHT31;56996;48.138;11.538;2023-05-07T12:46:01;25.90;34.99
69731;SHT31;56996;48.138;11.538;2023-05-07T12:48:32;25.86;35.11
69731;SHT31;56996;48.138;11.538;2023-05-07T12:51:00;25.78;34.94
69731;SHT31;56996;48.138;11.538;2023-05-07T12:53:28;25.74;34.92
69731;SHT31;56996;48.138;11.538;2023-05-07T12:55:57;25.76;34.99
69731;SHT31;56996;48.138;11.538;2023-05-07T12:58:28;25.69;35.18
69731;SHT31;56996;48.138;11.538;2023-05-07T13:01:00;25.76;35.05
69731;SHT31;56996;48.138;11.538;2023-05-07T13:03:32;25.80;34.98
69731;SHT31;56996;48.138;11.538;2023-05-07T13:06:05;25.76;35.18
69731;SHT31;56996;48.138;11.538;2023-05-07T13:08:39;25.73;34.97
69731;SHT31;56996;48.138;11.538;2023-05-07T13:11:10;25.71;35.28
69731;SHT31;56996;48.138;11.538;2023-05-07T13:13:38;25.82;35.03
69731;SHT31;56996;48.138;11.538;2023-05-07T13:16:07;25.82;34.77
69731;SHT31;56996;48.138;11.538;2023-05-07T13:18:38;25.82;34.84
69731;SHT31;56996;48.138;11.538;2023-05-07T13:21:07;25.81;34.79
69731;SHT31;56996;48.138;11.538;2023-05-07T13:23:34;25.80;34.97
69731;SHT31;56996;48.138;11.538;2023-05-07T13:26:01;25.71;34.66
69731;SHT31;56996;48.138;11.538;2023-05-07T13:28:36;25.66;34.80
69731;SHT31;56996;48.138;11.538;2023-05-07T13:31:03;25.75;34.86
69731;SHT31;56996;48.138;11.538;2023-05-07T13:33:30;25.90;34.43
69731;SHT31;56996;48.138;11.538;2023-05-07T13:35:57;25.97;34.18
69731;SHT31;56996;48.138;11.538;2023-05-07T13:38:23;26.01;34.03
69731;SHT31;56996;48.138;11.538;2023-05-07T13:40:50;25.99;33.99
69731;SHT31;56996;48.138;11.538;2023-05-07T13:43:17;25.83;33.86
69731;SHT31;56996;48.138;11.538;2023-05-07T13:45:45;25.76;33.80
69731;SHT31;56996;48.138;11.538;2023-05-07T13:48:11;25.80;33.87
69731;SHT31;56996;48.138;11.538;2023-05-07T13:50:38;25.89;33.99
69731;SHT31;56996;48.138;11.538;2023-05-07T13:53:05;25.95;33.68
69731;SHT31;56996;48.138;11.538;2023-05-07T13:55:31;25.92;33.63
69731;SHT31;56996;48.138;11.538;2023-05-07T13:57:59;25.77;33.81
69731;SHT31;56996;48.138;11.538;2023-05-07T14:00:32;25.76;33.81
69731;SHT31;56996;48.138;11.538;2023-05-07T14:02:59;25.79;33.79
69731;SHT31;56996;48.138;11.538;2023-05-07T14:05:26;25.82;33.81
69731;SHT31;56996;48.138;11.538;2023-05-07T14:07:55;25.75;33.92
69731;SHT31;56996;48.138;11.538;2023-05-07T14:10:24;25.83;33.99
69731;SHT31;56996;48.138;11.538;2023-05-07T14:12:51;25.79;33.93
69731;SHT31;56996;48.138;11.538;2023-05-07T14:15:19;25.69;34.12
69731;SHT31;56996;48.138;11.538;2023-05-07T14:17:46;25.62;34.22
69731;SHT31;56996;48.138;11.538;2023-05-07T14:20:13;25.48;34.43
69731;SHT31;56996;48.138;11.538;2023-05-07T14:22:40;25.39;34.65
69731;SHT31;56996;48.138;11.538;2023-05-07T14:25:07;25.22;34.68
69731;SHT31;56996;48.138;11.538;2023-05-07T14:27:36;24.99;35.23
69731;SHT31;56996;48.138;11.538;2023-05-07T14:30:03;24.92;35.35
69731;SHT31;56996;48.138;11.538;2023-05-07T14:32:30;24.87;35.64
69731;SHT31;56996;48.138;11.538;2023-05-07T14:34:56;24.82;35.68
69731;SHT31;56996;48.138;11.538;2023-05-07T14:37:23;24.78;35.49
69731;SHT31;56996;48.138;11.538;2023-05-07T14:39:50;24.73;35.55
69731;SHT31;56996;48.138;11.538;2023-05-07T14:42:17;24.79;35.76
69731;SHT31;56996;48.138;11.538;2023-05-07T14:44:44;24.85;36.19
69731;SHT31;56996;48.138;11.538;2023-05-07T14:47:12;24.92;36.23
69731;SHT31;56996;48.138;11.538;2023-05-07T14:49:39;24.99;36.34
69731;SHT31;56996;48.138;11.538;2023-05-07T14:52:07;25.01;36.32
69731;SHT31;56996;48.138;11.538;2023-05-07T14:54:36;25.03;36.31
69731;SHT31;56996;48.138;11.538;2023-05-07T14:57:05;24.97;36.50
69731;SHT31;56996;48.138;11.538;2023-05-07T14:59:33;24.77;36.93
69731;SHT31;56996;48.138;11.538;2023-05-07T15:02:00;24.72;37.18
69731;SHT31;56996;48.138;11.538;2023-05-07T15:04:32;24.65;37.72
69731;SHT31;56996;48.138;11.538;2023-05-07T15:06:59;24.54;38.05
69731;SHT31;56996;48.138;11.538;2023-05-07T15:09:26;24.51;38.01
69731;SHT31;56996;48.138;11.538;2023-05-07T15:11:53;24.48;38.22
69731;SHT31;56996;48.138;11.538;2023-05-07T15:14:19;24.49;38.23
69731;SHT31;56996;48.138;11.538;2023-05-07T15:16:48;24.42;38.56
69731;SHT31;56996;48.138;11.538;2023-05-07T15:19:16;24.32;38.53
69731;SHT31;56996;48.138;11.538;2023-05-07T15:21:43;24.26;38.85
69731;SHT31;56996;48.138;11.538;2023-05-07T15:24:10;24.23;38.83
69731;SHT31;56996;48.138;11.538;2023-05-07T15:26:36;24.23;38.74
69731;SHT31;56996;48.138;11.538;2023-05-07T15:29:03;24.21;38.87
69731;SHT31;56996;48.138;11.538;2023-05-07T15:31:34;24.16;39.09
69731;SHT31;56996;48.138;11.538;2023-05-07T15:34:01;24.06;39.14
69731;SHT31;56996;48.138;11.538;2023-05-07T15:36:27;23.91;39.21
69731;SHT31;56996;48.138;11.538;2023-05-07T15:38:54;23.83;39.56